createdAt,value
2018-05-18T00:01:05.424Z,10.81
2018-05-18T00:03:33.056Z,10.78
2018-05-18T00:06:00.641Z,10.76
2018-05-18T00:08:28.256Z,10.78
2018-05-18T00:10:55.897Z,10.77
2018-05-18T00:13:23.562Z,10.75
2018-05-18T00:15:51.160Z,10.67
2018-05-18T00:18:18.882Z,10.71
2018-05-18T00:20:46.455Z,10.74
2018-05-18T00:23:14.045Z,10.68
2018-05-18T00:25:41.657Z,10.68
2018-05-18T00:28:09.228Z,10.72
2018-05-18T00:30:37.425Z,10.75
2018-05-18T00:33:05.286Z,10.78
2018-05-18T00:35:32.873Z,10.76
2018-05-18T00:38:00.981Z,10.71
2018-05-18T00:40:28.625Z,10.74
2018-05-18T00:42:56.212Z,10.70
2018-05-18T00:45:23.811Z,10.73
2018-05-18T00:47:51.462Z,10.69
2018-05-18T00:50:19.111Z,10.60
2018-05-18T00:52:46.692Z,10.63
2018-05-18T00:55:26.142Z,10.61
2018-05-18T00:57:53.721Z,10.62
2018-05-18T01:00:21.398Z,10.63
2018-05-18T01:02:49.638Z,10.63
2018-05-18T01:05:17.272Z,10.63
2018-05-18T01:07:45.151Z,10.65
2018-05-18T01:10:12.798Z,10.60
2018-05-18T01:12:40.433Z,10.61
2018-05-18T01:15:08.597Z,10.63
2018-05-18T01:17:36.266Z,10.66
2018-05-18T01:20:03.888Z,10.67
2018-05-18T01:22:31.505Z,10.69
2018-05-18T01:24:59.115Z,10.64
2018-05-18T01:27:26.768Z,10.64
2018-05-18T01:29:54.751Z,10.66
2018-05-18T01:32:22.356Z,10.60
2018-05-18T01:34:49.939Z,10.55
2018-05-18T01:37:17.627Z,10.50
2018-05-18T01:39:45.632Z,10.55
2018-05-18T01:42:13.294Z,10.56
2018-05-18T01:44:40.870Z,10.58
2018-05-18T01:47:08.709Z,10.54
2018-05-18T01:49:36.316Z,10.54
2018-05-18T01:52:03.991Z,10.49
2018-05-18T01:54:31.672Z,10.52
2018-05-18T01:56:59.248Z,10.53
2018-05-18T01:59:26.927Z,10.54
2018-05-18T02:01:54.519Z,10.55
2018-05-18T02:04:22.129Z,10.55
2018-05-18T02:06:49.853Z,10.60
2018-05-18T02:09:17.429Z,10.61
2018-05-18T02:11:45.026Z,10.64
2018-05-18T02:14:12.707Z,10.60
2018-05-18T02:16:40.547Z,10.60
2018-05-18T02:19:08.418Z,10.56
2018-05-18T02:21:36.160Z,10.56
2018-05-18T02:24:03.734Z,10.54
2018-05-18T02:26:31.400Z,10.54
2018-05-18T02:28:59.113Z,10.54
2018-05-18T02:31:26.929Z,10.53
2018-05-18T02:33:54.762Z,10.50
2018-05-18T02:36:22.530Z,10.52
2018-05-18T02:38:50.199Z,10.53
2018-05-18T02:41:17.788Z,10.54
2018-05-18T02:43:45.493Z,10.53
2018-05-18T02:46:13.140Z,10.47
2018-05-18T02:48:40.837Z,10.44
2018-05-18T02:51:08.411Z,10.47
2018-05-18T02:53:36.383Z,10.43
2018-05-18T02:56:04.040Z,10.40
2018-05-18T02:58:31.699Z,10.45
2018-05-18T03:00:59.341Z,10.45
2018-05-18T03:03:27.068Z,10.46
2018-05-18T03:05:54.649Z,10.44
2018-05-18T03:08:22.260Z,10.43
2018-05-18T03:10:49.842Z,10.38
2018-05-18T03:13:17.986Z,10.36
2018-05-18T03:15:45.824Z,10.37
2018-05-18T03:18:13.472Z,10.33
2018-05-18T03:20:41.632Z,10.34
2018-05-18T03:23:09.556Z,10.37
2018-05-18T03:25:37.126Z,10.35
2018-05-18T03:28:04.810Z,10.33
2018-05-18T03:30:32.645Z,10.30
2018-05-18T03:33:00.295Z,10.27
2018-05-18T03:35:27.937Z,10.28
2018-05-18T03:37:55.555Z,10.33
2018-05-18T03:40:23.132Z,10.31
2018-05-18T03:42:51.153Z,10.27
2018-05-18T03:45:18.993Z,10.28
2018-05-18T03:47:46.635Z,10.29
2018-05-18T03:50:14.784Z,10.26
2018-05-18T03:52:42.589Z,10.23
2018-05-18T03:55:10.202Z,10.25
2018-05-18T03:57:37.924Z,10.24
2018-05-18T04:00:05.526Z,10.28
2018-05-18T04:02:45.379Z,10.30
2018-05-18T04:05:24.777Z,10.30
2018-05-18T04:08:04.452Z,10.31
2018-05-18T04:10:32.034Z,10.36
2018-05-18T04:12:59.858Z,10.38
2018-05-18T04:15:27.514Z,10.42
2018-05-18T04:17:55.152Z,10.43
2018-05-18T04:20:22.794Z,10.42
2018-05-18T04:22:59.681Z,10.39
2018-05-18T04:25:27.269Z,10.39
2018-05-18T04:27:54.865Z,10.37
2018-05-18T04:30:22.621Z,10.40
2018-05-18T04:32:50.699Z,10.41
2018-05-18T04:35:18.347Z,10.43
2018-05-18T04:37:45.980Z,10.38
2018-05-18T04:40:13.647Z,10.43
2018-05-18T04:42:57.541Z,10.41
2018-05-18T04:45:25.193Z,10.33
2018-05-18T04:47:52.781Z,10.38
2018-05-18T04:50:20.581Z,10.41
2018-05-18T04:52:48.421Z,10.39
2018-05-18T04:55:15.988Z,10.42
2018-05-18T04:57:43.687Z,10.49
2018-05-18T05:00:11.257Z,10.49
2018-05-18T05:02:38.831Z,10.53
2018-05-18T05:05:06.446Z,10.54
2018-05-18T05:07:34.057Z,10.51
2018-05-18T05:10:02.016Z,10.52
2018-05-18T05:12:30.290Z,10.55
2018-05-18T05:14:58.208Z,10.56
2018-05-18T05:17:25.789Z,10.63
2018-05-18T05:19:53.562Z,10.69
2018-05-18T05:22:21.173Z,10.67
2018-05-18T05:24:48.750Z,10.67
2018-05-18T05:27:16.370Z,10.68
2018-05-18T05:29:43.944Z,10.67
2018-05-18T05:32:11.633Z,10.67
2018-05-18T05:34:39.289Z,10.75
2018-05-18T05:37:07.164Z,10.81
2018-05-18T05:39:34.839Z,10.78
2018-05-18T05:42:02.408Z,10.77
2018-05-18T05:44:31.089Z,10.82
2018-05-18T05:46:58.803Z,10.92
2018-05-18T05:49:26.688Z,10.89
2018-05-18T05:51:54.381Z,10.93
2018-05-18T05:54:22.455Z,10.90
2018-05-18T05:56:50.029Z,10.93
2018-05-18T05:59:17.615Z,10.92
2018-05-18T06:01:45.255Z,10.99
2018-05-18T06:04:12.848Z,11.02
2018-05-18T06:06:40.713Z,11.15
2018-05-18T06:09:08.758Z,11.12
2018-05-18T06:11:36.329Z,11.17
2018-05-18T06:14:03.925Z,11.17
2018-05-18T06:16:32.031Z,11.19
2018-05-18T06:18:59.611Z,11.23
2018-05-18T06:21:27.208Z,11.22
2018-05-18T06:23:55.316Z,11.22
2018-05-18T06:26:22.906Z,11.19
2018-05-18T06:28:50.494Z,11.20
2018-05-18T06:31:18.429Z,11.24
2018-05-18T06:33:46.077Z,11.31
2018-05-18T06:36:13.647Z,11.35
2018-05-18T06:38:41.352Z,11.38
2018-05-18T06:41:09.137Z,11.35
2018-05-18T06:43:37.076Z,11.41
2018-05-18T06:46:04.650Z,11.46
2018-05-18T06:48:32.271Z,11.51
2018-05-18T06:50:59.910Z,11.57
2018-05-18T06:53:27.530Z,11.54
2018-05-18T06:55:55.105Z,11.52
2018-05-18T06:58:22.687Z,11.54
2018-05-18T07:00:50.326Z,11.53
2018-05-18T07:03:17.913Z,11.55
2018-05-18T07:05:45.985Z,11.56
2018-05-18T07:08:13.621Z,11.59
2018-05-18T07:10:41.275Z,11.62
2018-05-18T07:13:09.816Z,11.63
2018-05-18T07:15:37.398Z,11.63
2018-05-18T07:18:04.992Z,11.66
2018-05-18T07:20:32.782Z,11.70
2018-05-18T07:23:00.451Z,11.67
2018-05-18T07:25:28.029Z,11.76
2018-05-18T07:27:55.744Z,11.86
2018-05-18T07:30:23.584Z,11.96
2018-05-18T07:32:51.229Z,12.01
2018-05-18T07:35:18.952Z,12.08
2018-05-18T07:37:46.987Z,12.07
2018-05-18T07:40:14.811Z,12.12
2018-05-18T07:42:42.458Z,12.19
2018-05-18T07:45:10.044Z,12.18
2018-05-18T07:47:37.640Z,12.14
2018-05-18T07:50:05.444Z,12.17
2018-05-18T07:52:33.007Z,12.13
2018-05-18T07:55:00.596Z,12.19
2018-05-18T07:57:28.315Z,12.19
2018-05-18T07:59:55.970Z,12.25
2018-05-18T08:02:23.536Z,12.29
2018-05-18T08:04:51.148Z,12.40
2018-05-18T08:07:18.807Z,12.46
2018-05-18T08:09:46.445Z,12.48
2018-05-18T08:12:14.084Z,12.45
2018-05-18T08:14:41.729Z,12.47
2018-05-18T08:17:09.357Z,12.54
2018-05-18T08:19:36.949Z,12.63
2018-05-18T08:22:04.845Z,12.68
2018-05-18T08:24:32.495Z,12.83
2018-05-18T08:30:03.009Z,13.03
2018-05-18T08:32:30.694Z,13.04
2018-05-18T08:34:58.647Z,13.15
2018-05-18T08:37:26.273Z,13.20
2018-05-18T08:39:53.958Z,13.25
2018-05-18T08:42:21.521Z,13.35
2018-05-18T08:44:49.096Z,13.51
2018-05-18T08:47:16.695Z,13.48
2018-05-18T08:49:44.620Z,13.53
2018-05-18T08:52:12.846Z,13.56
2018-05-18T08:54:40.406Z,13.56
2018-05-18T08:57:08.160Z,13.56
2018-05-18T08:59:35.755Z,13.54
2018-05-18T09:02:03.420Z,13.52
2018-05-18T09:04:31.204Z,13.59
2018-05-18T09:06:58.905Z,13.73
2018-05-18T09:09:26.489Z,13.80
2018-05-18T09:11:54.133Z,13.82
2018-05-18T09:14:21.726Z,13.82
2018-05-18T09:16:49.308Z,13.93
2018-05-18T09:19:17.257Z,13.94
2018-05-18T09:21:44.829Z,13.96
2018-05-18T09:24:12.410Z,14.02
2018-05-18T09:26:39.999Z,13.94
2018-05-18T09:29:07.584Z,13.87
2018-05-18T09:31:35.359Z,13.92
2018-05-18T09:34:02.980Z,13.92
2018-05-18T09:36:30.592Z,13.92
2018-05-18T09:38:58.643Z,13.86
2018-05-18T09:41:26.211Z,13.86
2018-05-18T09:43:53.798Z,13.90
2018-05-18T09:46:21.393Z,13.88
2018-05-18T09:48:49.017Z,13.91
2018-05-18T09:51:16.644Z,13.92
2018-05-18T09:53:44.246Z,13.96
2018-05-18T09:56:11.814Z,14.04
2018-05-18T09:58:39.799Z,14.11
2018-05-18T10:01:07.385Z,14.16
2018-05-18T10:03:35.002Z,14.17
2018-05-18T10:06:02.612Z,14.21
2018-05-18T10:08:30.255Z,14.26
2018-05-18T10:10:57.857Z,14.33
2018-05-18T10:13:25.437Z,14.40
2018-05-18T10:15:53.076Z,14.56
2018-05-18T10:18:20.888Z,14.66
2018-05-18T10:20:48.537Z,14.74
2018-05-18T10:23:16.140Z,14.80
2018-05-18T10:25:43.715Z,14.89
2018-05-18T10:28:11.559Z,14.97
2018-05-18T10:30:39.180Z,14.98
2018-05-18T10:33:06.872Z,14.86
2018-05-18T10:35:34.467Z,14.89
2018-05-18T10:38:02.101Z,14.92
2018-05-18T10:40:29.780Z,15.01
2018-05-18T10:42:57.355Z,15.12
2018-05-18T10:45:24.994Z,15.20
2018-05-18T10:47:52.887Z,15.17
2018-05-18T10:50:20.506Z,15.17
2018-05-18T10:52:48.071Z,15.17
2018-05-18T10:55:15.720Z,15.10
2018-05-18T10:57:43.321Z,15.17
2018-05-18T11:00:10.937Z,15.21
2018-05-18T11:02:38.520Z,15.16
2018-05-18T11:05:06.148Z,15.15
2018-05-18T11:07:33.778Z,15.19
2018-05-18T11:10:01.597Z,15.27
2018-05-18T11:12:29.220Z,15.42
2018-05-18T11:14:56.789Z,15.42
2018-05-18T11:17:24.575Z,15.38
2018-05-18T11:19:52.168Z,15.42
2018-05-18T11:22:19.801Z,15.55
2018-05-18T11:24:47.391Z,15.60
2018-05-18T11:27:15.056Z,15.61
2018-05-18T11:29:42.636Z,15.69
2018-05-18T11:32:10.275Z,15.78
2018-05-18T11:34:38.252Z,15.94
2018-05-18T11:37:06.103Z,16.03
2018-05-18T11:39:33.659Z,16.08
2018-05-18T11:42:01.656Z,16.09
2018-05-18T11:44:29.285Z,16.17
2018-05-18T11:46:56.853Z,16.19
2018-05-18T11:49:24.726Z,16.16
2018-05-18T11:51:52.525Z,16.23
2018-05-18T11:54:20.153Z,16.22
2018-05-18T11:56:47.977Z,16.29
2018-05-18T11:59:15.835Z,16.30
2018-05-18T12:01:43.445Z,16.64
2018-05-18T12:04:11.134Z,16.78
2018-05-18T12:06:38.691Z,16.83
2018-05-18T12:09:06.244Z,17.10
2018-05-18T12:11:33.988Z,17.33
2018-05-18T12:14:01.619Z,17.49
2018-05-18T12:16:29.149Z,17.72
2018-05-18T12:18:56.969Z,17.69
2018-05-18T12:21:24.524Z,17.53
2018-05-18T12:23:52.586Z,17.38
2018-05-18T12:26:20.144Z,17.30
2018-05-18T12:28:47.777Z,17.17
2018-05-18T12:31:15.383Z,17.22
2018-05-18T12:33:42.944Z,17.26
2018-05-18T12:36:10.532Z,17.26
2018-05-18T12:38:38.115Z,17.35
2018-05-18T12:41:05.740Z,17.39
2018-05-18T12:43:33.296Z,17.34
2018-05-18T12:46:00.925Z,17.31
2018-05-18T12:48:28.501Z,17.45
2018-05-18T12:50:56.068Z,17.41
2018-05-18T12:53:23.678Z,17.67
2018-05-18T12:55:51.243Z,18.07
2018-05-18T12:58:18.849Z,18.43
2018-05-18T13:00:46.447Z,18.86
2018-05-18T13:03:14.034Z,19.22
2018-05-18T13:05:41.861Z,19.40
2018-05-18T13:08:09.516Z,19.63
2018-05-18T13:10:37.046Z,19.46
2018-05-18T13:13:04.620Z,19.54
2018-05-18T13:15:32.199Z,19.34
2018-05-18T13:18:00.294Z,19.17
2018-05-18T13:20:28.049Z,19.17
2018-05-18T13:22:55.753Z,19.15
2018-05-18T13:25:23.320Z,18.86
2018-05-18T13:27:50.911Z,19.09
2018-05-18T13:30:18.554Z,19.11
2018-05-18T13:32:46.119Z,19.14
2018-05-18T13:35:13.689Z,19.45
2018-05-18T13:37:41.423Z,19.73
2018-05-18T13:40:09.052Z,19.92
2018-05-18T13:42:36.611Z,19.98
2018-05-18T13:45:04.618Z,20.22
2018-05-18T13:47:32.574Z,20.26
2018-05-18T13:50:00.188Z,20.42
2018-05-18T13:52:27.754Z,20.59
2018-05-18T13:54:57.267Z,20.61
2018-05-18T13:57:24.823Z,20.63
2018-05-18T13:59:52.481Z,20.56
2018-05-18T14:02:20.101Z,20.43
2018-05-18T14:04:47.927Z,20.22
2018-05-18T14:07:15.574Z,19.81
2018-05-18T14:09:43.216Z,19.40
2018-05-18T14:12:10.796Z,18.86
2018-05-18T14:14:40.765Z,18.90
2018-05-18T14:17:08.621Z,19.08
2018-05-18T14:19:36.427Z,19.18
2018-05-18T14:22:03.985Z,19.26
2018-05-18T14:24:31.569Z,19.09
2018-05-18T14:26:59.369Z,18.95
2018-05-18T14:29:26.967Z,18.99
2018-05-18T14:31:54.567Z,18.92
2018-05-18T14:34:22.324Z,18.83
2018-05-18T14:36:49.933Z,18.41
2018-05-18T14:39:17.494Z,18.36
2018-05-18T14:41:45.081Z,18.20
2018-05-18T14:44:12.691Z,18.14
2018-05-18T14:46:40.289Z,18.16
2018-05-18T14:49:08.086Z,18.33
2018-05-18T14:51:35.700Z,18.56
2018-05-18T14:54:03.335Z,18.62
2018-05-18T14:56:30.986Z,18.48
2018-05-18T14:58:59.456Z,18.65
2018-05-18T15:01:27.020Z,18.72
2018-05-18T15:03:54.935Z,18.78
2018-05-18T15:06:22.524Z,18.74
2018-05-18T15:08:50.165Z,18.73
2018-05-18T15:11:17.791Z,18.59
2018-05-18T15:13:45.409Z,18.41
2018-05-18T15:16:13.016Z,18.42
2018-05-18T15:18:40.643Z,18.25
2018-05-18T15:21:08.242Z,18.47
2018-05-18T15:23:35.869Z,18.52
2018-05-18T15:26:03.548Z,18.57
2018-05-18T15:28:31.184Z,18.58
2018-05-18T15:30:59.507Z,18.42
2018-05-18T15:33:27.083Z,18.39
2018-05-18T15:35:54.643Z,18.45
2018-05-18T15:38:22.228Z,18.44
2018-05-18T15:40:50.033Z,18.31
2018-05-18T15:43:18.080Z,18.27
2018-05-18T15:45:45.654Z,18.13
2018-05-18T15:48:13.207Z,18.06
2018-05-18T15:50:41.116Z,17.98
2018-05-18T15:53:08.668Z,17.85
2018-05-18T15:55:36.235Z,17.75
2018-05-18T15:58:03.815Z,17.76
2018-05-18T16:00:31.394Z,17.64
2018-05-18T16:02:59.007Z,17.43
2018-05-18T16:05:26.585Z,17.43
2018-05-18T16:07:54.163Z,17.23
2018-05-18T16:10:21.876Z,17.02
2018-05-18T16:12:49.533Z,16.75
2018-05-18T16:15:17.024Z,16.68
2018-05-18T16:17:44.615Z,16.78
2018-05-18T16:20:12.209Z,16.72
2018-05-18T16:22:40.089Z,16.75
2018-05-18T16:25:07.918Z,16.75
2018-05-18T16:27:35.549Z,16.73
2018-05-18T16:30:03.432Z,16.70
2018-05-18T16:32:31.006Z,16.79
2018-05-18T16:34:58.610Z,16.94
2018-05-18T16:37:27.104Z,17.03
2018-05-18T16:39:55.158Z,16.91
2018-05-18T16:42:22.805Z,16.60
2018-05-18T16:44:50.431Z,16.43
2018-05-18T16:47:18.072Z,16.50
2018-05-18T16:49:45.634Z,16.46
2018-05-18T16:52:13.551Z,16.38
2018-05-18T16:54:41.115Z,16.37
2018-05-18T16:57:08.679Z,16.23
2018-05-18T16:59:36.272Z,16.11
2018-05-18T17:02:03.835Z,16.09
2018-05-18T17:04:31.845Z,15.95
2018-05-18T17:06:59.476Z,15.88
2018-05-18T17:09:27.034Z,15.98
2018-05-18T17:11:54.646Z,16.02
2018-05-18T17:14:22.200Z,15.90
2018-05-18T17:16:49.772Z,15.86
2018-05-18T17:19:17.378Z,15.84
2018-05-18T17:21:44.947Z,15.77
2018-05-18T17:24:12.532Z,15.59
2018-05-18T17:26:40.105Z,15.43
2018-05-18T17:29:07.710Z,15.32
2018-05-18T17:31:35.368Z,15.23
2018-05-18T17:34:03.241Z,15.06
2018-05-18T17:36:30.947Z,14.97
2018-05-18T17:38:58.892Z,14.76
2018-05-18T17:41:26.514Z,14.81
2018-05-18T17:43:54.812Z,14.80
2018-05-18T17:46:22.373Z,14.80
2018-05-18T17:48:49.968Z,14.69
2018-05-18T17:51:17.606Z,14.53
2018-05-18T17:53:45.184Z,14.46
2018-05-18T17:56:12.840Z,14.42
2018-05-18T17:58:40.399Z,14.39
2018-05-18T18:01:07.991Z,14.30
2018-05-18T18:03:35.578Z,14.19
2018-05-18T18:06:03.178Z,14.20
2018-05-18T18:08:30.749Z,14.11
2018-05-18T18:10:58.419Z,14.04
2018-05-18T18:13:26.026Z,14.02
2018-05-18T18:15:53.659Z,13.98
2018-05-18T18:18:21.498Z,13.85
2018-05-18T18:20:49.429Z,13.81
2018-05-18T18:23:17.019Z,13.76
2018-05-18T18:25:44.589Z,13.70
2018-05-18T18:28:12.232Z,13.69
2018-05-18T18:30:39.868Z,13.62
2018-05-18T18:33:07.669Z,13.57
2018-05-18T18:35:35.271Z,13.45
2018-05-18T18:38:02.925Z,13.53
2018-05-18T18:40:30.559Z,13.47
2018-05-18T18:42:58.145Z,13.42
2018-05-18T18:45:25.792Z,13.33
2018-05-18T18:47:53.437Z,13.27
2018-05-18T18:50:21.011Z,13.26
2018-05-18T18:52:48.575Z,13.25
2018-05-18T18:55:16.216Z,13.26
2018-05-18T18:57:44.042Z,13.23
2018-05-18T19:00:11.627Z,13.20
2018-05-18T19:02:39.275Z,13.20
2018-05-18T19:05:06.834Z,13.14
2018-05-18T19:07:34.660Z,13.09
2018-05-18T19:10:02.485Z,13.05
2018-05-18T19:12:30.313Z,13.02
2018-05-18T19:14:57.905Z,12.98
2018-05-18T19:17:25.476Z,12.99
2018-05-18T19:19:53.086Z,12.97
2018-05-18T19:22:20.662Z,13.01
2018-05-18T19:24:48.235Z,13.03
2018-05-18T19:27:15.843Z,13.03
2018-05-18T19:29:43.620Z,13.04
2018-05-18T19:32:11.158Z,13.00
2018-05-18T19:34:38.724Z,13.01
2018-05-18T19:37:06.464Z,13.02
2018-05-18T19:39:34.068Z,13.01
2018-05-18T19:42:01.700Z,13.00
2018-05-18T19:44:29.674Z,12.92
2018-05-18T19:46:57.274Z,12.94
2018-05-18T19:49:24.828Z,12.97
2018-05-18T19:51:52.533Z,12.93
2018-05-18T19:54:20.095Z,12.90
2018-05-18T19:56:47.725Z,12.91
2018-05-18T19:59:15.498Z,12.84
2018-05-18T20:01:43.346Z,12.84
2018-05-18T20:04:10.920Z,12.88
2018-05-18T20:06:38.527Z,12.90
2018-05-18T20:09:06.164Z,12.93
2018-05-18T20:11:34.001Z,12.94
2018-05-18T20:14:01.664Z,12.92
2018-05-18T20:16:29.243Z,12.89
2018-05-18T20:18:57.200Z,12.87
2018-05-18T20:21:24.776Z,12.91
2018-05-18T20:23:52.370Z,12.88
2018-05-18T20:26:20.194Z,12.86
2018-05-18T20:28:47.802Z,12.85
2018-05-18T20:31:15.455Z,12.82
2018-05-18T20:33:43.038Z,12.79
2018-05-18T20:36:10.842Z,12.80
2018-05-18T20:38:38.413Z,12.79
2018-05-18T20:41:05.986Z,12.75
2018-05-18T20:43:33.592Z,12.77
2018-05-18T20:46:01.283Z,12.69
2018-05-18T20:48:28.847Z,12.66
2018-05-18T20:50:56.490Z,12.66
2018-05-18T20:53:24.576Z,12.65
2018-05-18T20:55:52.145Z,12.65
2018-05-18T20:58:19.765Z,12.65
2018-05-18T21:00:47.411Z,12.68
2018-05-18T21:03:15.052Z,12.66
2018-05-18T21:05:42.859Z,12.67
2018-05-18T21:08:10.447Z,12.65
2018-05-18T21:10:38.128Z,12.66
2018-05-18T21:13:05.822Z,12.65
2018-05-18T21:15:33.680Z,12.63
2018-05-18T21:18:01.322Z,12.62
2018-05-18T21:20:29.095Z,12.60
2018-05-18T21:22:56.793Z,12.61
2018-05-18T21:25:24.421Z,12.59
2018-05-18T21:27:52.055Z,12.58
2018-05-18T21:30:20.080Z,12.58
2018-05-18T21:32:48.361Z,12.62
2018-05-18T21:35:15.946Z,12.63
2018-05-18T21:37:43.543Z,12.64
2018-05-18T21:40:11.202Z,12.60
2018-05-18T21:42:38.826Z,12.63
2018-05-18T21:45:06.471Z,12.65
2018-05-18T21:47:34.098Z,12.68
2018-05-18T21:50:01.752Z,12.67
2018-05-18T21:52:29.918Z,12.66
2018-05-18T21:54:57.492Z,12.66
2018-05-18T21:57:25.242Z,12.67
2018-05-18T21:59:52.830Z,12.70
2018-05-18T22:02:20.525Z,12.73
2018-05-18T22:04:48.102Z,12.77
2018-05-18T22:07:15.737Z,12.80
2018-05-18T22:09:43.500Z,12.81
2018-05-18T22:12:11.197Z,12.82
2018-05-18T22:14:38.873Z,12.82
2018-05-18T22:17:06.594Z,12.84
2018-05-18T22:19:34.227Z,12.85
2018-05-18T22:22:02.025Z,12.86
2018-05-18T22:24:29.947Z,12.87
2018-05-18T22:26:57.596Z,12.87
2018-05-18T22:29:25.201Z,12.88
2018-05-18T22:31:53.001Z,12.89
2018-05-18T22:34:20.729Z,12.90
2018-05-18T22:36:48.314Z,12.90
2018-05-18T22:39:16.518Z,12.92
2018-05-18T22:41:44.102Z,12.91
2018-05-18T22:44:11.918Z,12.91
2018-05-18T22:46:39.826Z,12.90
2018-05-18T22:49:07.863Z,12.90
2018-05-18T22:51:35.572Z,12.88
2018-05-18T22:54:03.234Z,12.88
2018-05-18T22:56:30.946Z,12.87
2018-05-18T22:58:58.680Z,12.85
2018-05-18T23:01:27.281Z,12.82
2018-05-18T23:03:54.960Z,12.81
2018-05-18T23:06:22.535Z,12.81
2018-05-18T23:08:50.315Z,12.76
2018-05-18T23:11:17.890Z,12.75
2018-05-18T23:13:45.466Z,12.74
2018-05-18T23:16:13.772Z,12.72
2018-05-18T23:18:41.854Z,12.72
2018-05-18T23:21:09.924Z,12.71
2018-05-18T23:23:37.764Z,12.71
2018-05-18T23:26:05.812Z,12.69
2018-05-18T23:28:34.176Z,12.68
2018-05-18T23:31:01.751Z,12.67
2018-05-18T23:33:29.340Z,12.68
2018-05-18T23:35:56.972Z,12.67
2018-05-18T23:38:24.614Z,12.65
2018-05-18T23:40:52.206Z,12.63
2018-05-18T23:43:19.816Z,12.62
2018-05-18T23:45:47.451Z,12.60
2018-05-18T23:48:15.062Z,12.59
2018-05-18T23:50:42.627Z,12.58
2018-05-18T23:53:10.236Z,12.58
2018-05-18T23:55:37.818Z,12.59
2018-05-18T23:58:05.446Z,12.61
